Aeroporto :
LOGIN :

Iscrizione | Disclaimer

   EN    FR    IT 

 










Sommario :    VFR   VFR Marginale   IFR   IFR Intensivo   IFR Molto Intensivo
Visibilità : 
Base nubi : 
>= 8 km
>= 3000ft
5 / 8 km
1000 / 3000 ft
1500m / 5 km
500 / 1000 ft
800 / 1500m
200 / 500 ft
< 800m
< 200 ft
Simboli :   Temporali  Nebbia  Neve Forte  Precipitazioni Forti  Vento > 20 kt
SIGMETs :   Varie  Temporali  Ghiacco  Turbolenza  Onda orograficha  Ceneri Vulcaniche







- Altitudine del aeroporto : 200 ft


EBBL - Klein Brogel AB

ULTIMO METAR :
  • 230225Z AUTO 23006KT 9999 NCD 05/04 Q1031 BLU

METARs OBSOLETI :
  • 230155Z AUTO 23007KT 9999 NCD 05/04 Q1031 BLU
  • 230125Z AUTO 23004KT 9999 NCD 05/04 Q1032 BLU
  • 230055Z AUTO 23005KT 9999 NCD 05/04 Q1032 BLU
  • 230025Z AUTO 22005KT 9999 NCD 04/03 Q1033 BLU
  • 222355Z AUTO 22004KT 9999 NCD 04/03 Q1033 BLU

TAF TAF EBBL
Valido dal 22 a 19 ore il 23 a 07 ore UTC


221541Z 2219/2307 34004KT 9999 SCT030
BECMG 2222/2300 7000
BECMG 2300/2302 24004KT
Nessun NOTAM noto per questo aeroporto.



MetMap, La meteo Aeronautica in un colpo d'occhio ! - Copyright ORBIFLY Dicembre 2007 - Disclaimer

ORBIFLY MET'MAP TEAM :

Programmazione e sviluppo : Alexandra Zaïnal
Concezione e sviluppo : Baudouin d'Aumeries
Co-Programmazione e sviluppo : Marc-Olivier Méhu
Supporto tecnico e logistico : Manuel Goepfert
Aiuto per la traduzione : Arnaldo La Scala

Contatto : metmap@orbifly.com




FONTI E CREDITI :

   NOAA